sensor_id;sensor_type;location;lat;lon;timestamp;pressure;altitude;pressure_sealevel;temperature;humidity
57799;BME280;43626;53.866;30.298;2023-07-28T00:00:42;1010.7;;;15.7;76.7
57799;BME280;43626;53.866;30.298;2023-07-28T00:05:47;1010.7;;;15.7;76.6
57799;BME280;43626;53.866;30.298;2023-07-28T00:10:57;1010.7;;;15.7;76.7
57799;BME280;43626;53.866;30.298;2023-07-28T00:15:25;1010.7;;;15.7;76.7
57799;BME280;43626;53.866;30.298;2023-07-28T00:20:17;1010.8;;;15.7;76.7
57799;BME280;43626;53.866;30.298;2023-07-28T00:25:33;1010.9;;;15.6;76.8
57799;BME280;43626;53.866;30.298;2023-07-28T00:30:41;1010.9;;;15.6;76.7
57799;BME280;43626;53.866;30.298;2023-07-28T00:35:41;1011;;;15.6;76.7
57799;BME280;43626;53.866;30.298;2023-07-28T00:40:45;1011;;;15.5;76.7
57799;BME280;43626;53.866;30.298;2023-07-28T00:45:35;1011;;;15.5;76.4
57799;BME280;43626;53.866;30.298;2023-07-28T00:50:31;1011;;;15.5;76.3
57799;BME280;43626;53.866;30.298;2023-07-28T00:55:17;1011;;;15.5;76.2
57799;BME280;43626;53.866;30.298;2023-07-28T01:00:37;1011.1;;;15.5;76.1
57799;BME280;43626;53.866;30.298;2023-07-28T01:05:32;1011.1;;;15.5;75.8
57799;BME280;43626;53.866;30.298;2023-07-28T01:10:45;1011.1;;;15.5;75.8
57799;BME280;43626;53.866;30.298;2023-07-28T01:15:55;1011.1;;;15.5;75.6
57799;BME280;43626;53.866;30.298;2023-07-28T01:20:21;1011.2;;;15.4;75.6
57799;BME280;43626;53.866;30.298;2023-07-28T01:25:18;1011.2;;;15.4;75.7
57799;BME280;43626;53.866;30.298;2023-07-28T01:30:57;1011.2;;;15.4;75.5
57799;BME280;43626;53.866;30.298;2023-07-28T01:35:17;1011.1;;;15.3;75.6
57799;BME280;43626;53.866;30.298;2023-07-28T01:40:17;1011.1;;;15.3;75.7
57799;BME280;43626;53.866;30.298;2023-07-28T01:45:31;1011.2;;;15.4;75.6
57799;BME280;43626;53.866;30.298;2023-07-28T01:50:19;1011.2;;;15.4;75.6
57799;BME280;43626;53.866;30.298;2023-07-28T01:55:57;1011.2;;;15.4;75.4
57799;BME280;43626;53.866;30.298;2023-07-28T02:00:17;1011.2;;;15.4;75.3
57799;BME280;43626;53.866;30.298;2023-07-28T02:05:57;1011.3;;;15.4;75.3
57799;BME280;43626;53.866;30.298;2023-07-28T02:10:47;1011.2;;;15.4;75.2
57799;BME280;43626;53.866;30.298;2023-07-28T02:15:27;1011.3;;;15.4;75.1
57799;BME280;43626;53.866;30.298;2023-07-28T02:20:35;1011.3;;;15.4;74.9
57799;BME280;43626;53.866;30.298;2023-07-28T02:25:35;1011.3;;;15.4;74.7
57799;BME280;43626;53.866;30.298;2023-07-28T02:30:21;1011.3;;;15.3;74.7
57799;BME280;43626;53.866;30.298;2023-07-28T02:35:29;1011.4;;;15.3;74.5
57799;BME280;43626;53.866;30.298;2023-07-28T02:40:32;1011.6;;;15.3;74.3
57799;BME280;43626;53.866;30.298;2023-07-28T02:45:48;1011.7;;;15.3;74.4
57799;BME280;43626;53.866;30.298;2023-07-28T02:50:55;1011.7;;;15.3;74.4
57799;BME280;43626;53.866;30.298;2023-07-28T02:55:17;1011.8;;;15.3;74.2
57799;BME280;43626;53.866;30.298;2023-07-28T03:00:21;1011.9;;;15.3;74
57799;BME280;43626;53.866;30.298;2023-07-28T03:05:31;1012;;;15.3;73.7
57799;BME280;43626;53.866;30.298;2023-07-28T03:10:56;1012;;;15.3;73.3
57799;BME280;43626;53.866;30.298;2023-07-28T03:15:43;1012;;;15.3;72.8
57799;BME280;43626;53.866;30.298;2023-07-28T03:20:45;1012.1;;;15.3;72.3
57799;BME280;43626;53.866;30.298;2023-07-28T03:25:53;1012.2;;;15.3;72
57799;BME280;43626;53.866;30.298;2023-07-28T03:30:43;1012.3;;;15.3;72.1
57799;BME280;43626;53.866;30.298;2023-07-28T03:35:17;1012.3;;;15.3;72
57799;BME280;43626;53.866;30.298;2023-07-28T03:40:27;1012.3;;;15.3;72.2
57799;BME280;43626;53.866;30.298;2023-07-28T03:45:55;1012.4;;;15.4;72
57799;BME280;43626;53.866;30.298;2023-07-28T03:50:19;1012.5;;;15.4;71.7
57799;BME280;43626;53.866;30.298;2023-07-28T03:55:55;1012.5;;;15.5;71.7
57799;BME280;43626;53.866;30.298;2023-07-28T04:00:55;1012.5;;;15.5;71.6
57799;BME280;43626;53.866;30.298;2023-07-28T04:05:43;1012.4;;;15.6;71.5
57799;BME280;43626;53.866;30.298;2023-07-28T04:10:17;1012.5;;;15.6;71.1
57799;BME280;43626;53.866;30.298;2023-07-28T04:15:43;1012.5;;;15.6;70.6
57799;BME280;43626;53.866;30.298;2023-07-28T04:20:55;1012.5;;;15.5;70.3
57799;BME280;43626;53.866;30.298;2023-07-28T04:25:51;1012.5;;;15.5;70.5
57799;BME280;43626;53.866;30.298;2023-07-28T04:30:31;1012.6;;;15.5;70.3
57799;BME280;43626;53.866;30.298;2023-07-28T04:35:55;1012.7;;;15.5;70.2
57799;BME280;43626;53.866;30.298;2023-07-28T04:40:27;1012.7;;;15.5;70.4
57799;BME280;43626;53.866;30.298;2023-07-28T04:45:17;1012.8;;;15.7;70.4
57799;BME280;43626;53.866;30.298;2023-07-28T04:50:25;1012.8;;;15.7;70.3
57799;BME280;43626;53.866;30.298;2023-07-28T04:55:45;1012.9;;;15.8;70.1
57799;BME280;43626;53.866;30.298;2023-07-28T05:00:41;1012.9;;;15.9;69.8
57799;BME280;43626;53.866;30.298;2023-07-28T05:05:55;1012.8;;;16;69.5
57799;BME280;43626;53.866;30.298;2023-07-28T05:10:29;1012.8;;;16.1;69.1
57799;BME280;43626;53.866;30.298;2023-07-28T05:15:21;1012.8;;;16.2;69
57799;BME280;43626;53.866;30.298;2023-07-28T05:20:43;1012.8;;;16.3;68.8
57799;BME280;43626;53.866;30.298;2023-07-28T05:25:41;1012.9;;;16.3;68
57799;BME280;43626;53.866;30.298;2023-07-28T05:30:25;1012.9;;;16.3;67.7
57799;BME280;43626;53.866;30.298;2023-07-28T05:35:43;1013;;;16.3;68
57799;BME280;43626;53.866;30.298;2023-07-28T05:40:56;1012.9;;;16.4;68
57799;BME280;43626;53.866;30.298;2023-07-28T05:45:21;1012.9;;;16.5;68.1
57799;BME280;43626;53.866;30.298;2023-07-28T05:50:21;1012.9;;;16.5;67.7
57799;BME280;43626;53.866;30.298;2023-07-28T05:55:53;1012.8;;;16.6;67.8
57799;BME280;43626;53.866;30.298;2023-07-28T06:00:29;1012.8;;;16.8;67.3
57799;BME280;43626;53.866;30.298;2023-07-28T06:05:17;1012.8;;;16.9;65.9
57799;BME280;43626;53.866;30.298;2023-07-28T06:10:35;1012.8;;;16.9;66.6
57799;BME280;43626;53.866;30.298;2023-07-28T06:15:38;1012.8;;;17;65.8
57799;BME280;43626;53.866;30.298;2023-07-28T06:20:17;1012.8;;;17.2;65.5
57799;BME280;43626;53.866;30.298;2023-07-28T06:25:17;1012.9;;;17.3;65.4
57799;BME280;43626;53.866;30.298;2023-07-28T06:30:57;1012.9;;;17.5;65.8
57799;BME280;43626;53.866;30.298;2023-07-28T06:35:47;1012.9;;;17.6;65.3
57799;BME280;43626;53.866;30.298;2023-07-28T06:40:31;1012.9;;;17.6;64.7
57799;BME280;43626;53.866;30.298;2023-07-28T06:45:21;1012.9;;;17.6;64.8
57799;BME280;43626;53.866;30.298;2023-07-28T06:50:57;1012.9;;;17.7;64.7
57799;BME280;43626;53.866;30.298;2023-07-28T06:55:22;1012.9;;;17.9;64.4
57799;BME280;43626;53.866;30.298;2023-07-28T07:00:17;1012.9;;;18;63.5
57799;BME280;43626;53.866;30.298;2023-07-28T07:05:45;1013;;;18;62.5
57799;BME280;43626;53.866;30.298;2023-07-28T07:10:47;1013;;;18.2;62.8
57799;BME280;43626;53.866;30.298;2023-07-28T07:15:57;1013.1;;;18.3;61.8
57799;BME280;43626;53.866;30.298;2023-07-28T07:20:17;1013;;;18.4;60.9
57799;BME280;43626;53.866;30.298;2023-07-28T07:25:35;1013.1;;;18.5;60.7
57799;BME280;43626;53.866;30.298;2023-07-28T07:30:21;1013.1;;;18.7;60.5
57799;BME280;43626;53.866;30.298;2023-07-28T07:35:57;1013.2;;;18.8;60.2
57799;BME280;43626;53.866;30.298;2023-07-28T07:40:46;1013.3;;;18.9;59.5
57799;BME280;43626;53.866;30.298;2023-07-28T07:45:47;1013.3;;;19;59.6
57799;BME280;43626;53.866;30.298;2023-07-28T07:50:57;1013.3;;;19.3;58.8
57799;BME280;43626;53.866;30.298;2023-07-28T07:55:45;1013.3;;;19.4;57.6
57799;BME280;43626;53.866;30.298;2023-07-28T08:00:21;1013.2;;;19.5;56
57799;BME280;43626;53.866;30.298;2023-07-28T08:05:17;1013.3;;;19.7;54.1
57799;BME280;43626;53.866;30.298;2023-07-28T08:10:57;1013.3;;;19.7;54.9
57799;BME280;43626;53.866;30.298;2023-07-28T08:15:42;1013.4;;;19.9;53.9
57799;BME280;43626;53.866;30.298;2023-07-28T08:20:22;1013.4;;;20;53.1
57799;BME280;43626;53.866;30.298;2023-07-28T08:25:43;1013.5;;;20.1;52.8
57799;BME280;43626;53.866;30.298;2023-07-28T08:30:18;1013.4;;;20.3;52.8
57799;BME280;43626;53.866;30.298;2023-07-28T08:35:17;1013.4;;;20.2;52.4
57799;BME280;43626;53.866;30.298;2023-07-28T08:40:17;1013.4;;;20.2;52.7
57799;BME280;43626;53.866;30.298;2023-07-28T08:45:41;1013.4;;;20.3;52.1
57799;BME280;43626;53.866;30.298;2023-07-28T08:50:41;1013.4;;;20.4;50.7
57799;BME280;43626;53.866;30.298;2023-07-28T08:55:45;1013.4;;;20.2;50.8
57799;BME280;43626;53.866;30.298;2023-07-28T09:00:31;1013.5;;;20.3;50
57799;BME280;43626;53.866;30.298;2023-07-28T09:05:21;1013.5;;;20.5;47.7
57799;BME280;43626;53.866;30.298;2023-07-28T09:10:34;1013.5;;;20.6;47.6
57799;BME280;43626;53.866;30.298;2023-07-28T09:15:29;1013.5;;;20.7;46.4
57799;BME280;43626;53.866;30.298;2023-07-28T09:20:35;1013.5;;;20.9;45.5
57799;BME280;43626;53.866;30.298;2023-07-28T09:25:43;1013.5;;;21;44.9
57799;BME280;43626;53.866;30.298;2023-07-28T09:30:59;1013.5;;;21;44
57799;BME280;43626;53.866;30.298;2023-07-28T09:35:17;1013.6;;;21;43.8
57799;BME280;43626;53.866;30.298;2023-07-28T09:40:17;1013.6;;;21;44.3
57799;BME280;43626;53.866;30.298;2023-07-28T09:45:43;1013.6;;;21;44.8
57799;BME280;43626;53.866;30.298;2023-07-28T09:50:22;1013.6;;;21.2;44.7
57799;BME280;43626;53.866;30.298;2023-07-28T09:55:33;1013.7;;;21.2;43.3
57799;BME280;43626;53.866;30.298;2023-07-28T10:00:57;1013.8;;;21.2;42.6
57799;BME280;43626;53.866;30.298;2023-07-28T10:05:57;1013.7;;;21.3;42.8
57799;BME280;43626;53.866;30.298;2023-07-28T10:10:25;1013.7;;;21.2;43.2
57799;BME280;43626;53.866;30.298;2023-07-28T10:15:26;1013.7;;;21.3;43.3
57799;BME280;43626;53.866;30.298;2023-07-28T10:21:03;1013.6;;;21.6;43.9
57799;BME280;43626;53.866;30.298;2023-07-28T10:25:31;1013.7;;;21.8;43.1
57799;BME280;43626;53.866;30.298;2023-07-28T10:30:27;1013.7;;;21.8;42.7
57799;BME280;43626;53.866;30.298;2023-07-28T10:35:29;1013.6;;;21.7;42.3
57799;BME280;43626;53.866;30.298;2023-07-28T10:40:49;1013.6;;;21.5;42.5
57799;BME280;43626;53.866;30.298;2023-07-28T10:45:26;1013.6;;;21.5;42.4
57799;BME280;43626;53.866;30.298;2023-07-28T10:50:17;1013.6;;;21.6;41.4
57799;BME280;43626;53.866;30.298;2023-07-28T10:55:57;1013.6;;;21.6;41.7
57799;BME280;43626;53.866;30.298;2023-07-28T11:00:45;1013.7;;;21.3;42.2
57799;BME280;43626;53.866;30.298;2023-07-28T11:05:31;1013.7;;;21.2;42.7
57799;BME280;43626;53.866;30.298;2023-07-28T11:10:18;1013.7;;;21.2;42.6
57799;BME280;43626;53.866;30.298;2023-07-28T11:16:00;1013.8;;;21.5;43.3
57799;BME280;43626;53.866;30.298;2023-07-28T11:20:33;1013.8;;;21.7;42.4
57799;BME280;43626;53.866;30.298;2023-07-28T11:25:17;1013.9;;;21.7;42.3
57799;BME280;43626;53.866;30.298;2023-07-28T11:30:45;1013.8;;;21.9;42.2
57799;BME280;43626;53.866;30.298;2023-07-28T11:35:49;1013.8;;;22.4;41.5
57799;BME280;43626;53.866;30.298;2023-07-28T11:40:59;1013.9;;;22.5;39.8
57799;BME280;43626;53.866;30.298;2023-07-28T11:45:18;1013.9;;;22.8;40.3
57799;BME280;43626;53.866;30.298;2023-07-28T11:50:45;1013.9;;;22.7;40.1
57799;BME280;43626;53.866;30.298;2023-07-28T11:55:17;1013.8;;;23.1;38.5
57799;BME280;43626;53.866;30.298;2023-07-28T12:00:59;1013.7;;;23.5;38.2
57799;BME280;43626;53.866;30.298;2023-07-28T12:05:31;1013.7;;;23.8;37.1
57799;BME280;43626;53.866;30.298;2023-07-28T12:10:57;1013.7;;;23.8;37.1
57799;BME280;43626;53.866;30.298;2023-07-28T12:15:57;1013.7;;;24;36.8
57799;BME280;43626;53.866;30.298;2023-07-28T12:20:46;1013.6;;;24.2;36
57799;BME280;43626;53.866;30.298;2023-07-28T12:25:25;1013.6;;;24.3;35.4
57799;BME280;43626;53.866;30.298;2023-07-28T12:30:45;1013.6;;;24.5;35.5
57799;BME280;43626;53.866;30.298;2023-07-28T12:35:57;1013.7;;;24.4;34.8
57799;BME280;43626;53.866;30.298;2023-07-28T12:40:41;1013.7;;;24;35
57799;BME280;43626;53.866;30.298;2023-07-28T12:45:31;1013.7;;;23.5;35.4
57799;BME280;43626;53.866;30.298;2023-07-28T12:50:57;1013.6;;;23.3;35.7
57799;BME280;43626;53.866;30.298;2023-07-28T12:55:31;1013.6;;;23.7;35.6
57799;BME280;43626;53.866;30.298;2023-07-28T13:00:17;1013.6;;;23.9;35.9
57799;BME280;43626;53.866;30.298;2023-07-28T13:05:55;1013.6;;;23.9;35.6
57799;BME280;43626;53.866;30.298;2023-07-28T13:10:41;1013.6;;;24.2;35.4
57799;BME280;43626;53.866;30.298;2023-07-28T13:15:41;1013.7;;;24.5;35.1
57799;BME280;43626;53.866;30.298;2023-07-28T13:20:31;1013.7;;;24.6;34.6
57799;BME280;43626;53.866;30.298;2023-07-28T13:25:45;1013.7;;;24.7;34.1
57799;BME280;43626;53.866;30.298;2023-07-28T13:30:33;1013.8;;;24.8;33.9
57799;BME280;43626;53.866;30.298;2023-07-28T13:35:17;1013.8;;;24.7;33.1
57799;BME280;43626;53.866;30.298;2023-07-28T13:40:17;1013.8;;;24.3;33.9
57799;BME280;43626;53.866;30.298;2023-07-28T13:45:33;1013.7;;;24.3;35.9
57799;BME280;43626;53.866;30.298;2023-07-28T13:50:41;1013.8;;;24.4;34.8
57799;BME280;43626;53.866;30.298;2023-07-28T13:55:57;1013.9;;;24.1;35.3
57799;BME280;43626;53.866;30.298;2023-07-28T14:00:31;1013.9;;;23.7;35.7
57799;BME280;43626;53.866;30.298;2023-07-28T14:05:17;1014;;;23.5;36
57799;BME280;43626;53.866;30.298;2023-07-28T14:10:43;1013.9;;;23.3;36.1
57799;BME280;43626;53.866;30.298;2023-07-28T14:15:29;1013.9;;;23.2;36.3
57799;BME280;43626;53.866;30.298;2023-07-28T14:20:47;1013.9;;;23.1;37.5
57799;BME280;43626;53.866;30.298;2023-07-28T14:25:37;1013.9;;;23;37.7
57799;BME280;43626;53.866;30.298;2023-07-28T14:30:57;1013.9;;;23;38
57799;BME280;43626;53.866;30.298;2023-07-28T14:35:21;1013.9;;;23.1;38.6
57799;BME280;43626;53.866;30.298;2023-07-28T14:40:17;1013.8;;;23.6;37.4
57799;BME280;43626;53.866;30.298;2023-07-28T14:45:57;1013.7;;;24.3;36.4
57799;BME280;43626;53.866;30.298;2023-07-28T14:50:17;1013.8;;;25;35.7
57799;BME280;43626;53.866;30.298;2023-07-28T14:55:27;1013.8;;;25.5;34.3
57799;BME280;43626;53.866;30.298;2023-07-28T15:00:33;1013.8;;;25.6;33.3
57799;BME280;43626;53.866;30.298;2023-07-28T15:05:47;1013.7;;;25.7;33
57799;BME280;43626;53.866;30.298;2023-07-28T15:10:17;1013.8;;;25.8;32.2
57799;BME280;43626;53.866;30.298;2023-07-28T15:15:17;1013.8;;;26;30.7
57799;BME280;43626;53.866;30.298;2023-07-28T15:20:57;1013.8;;;26.2;30.5
57799;BME280;43626;53.866;30.298;2023-07-28T15:25:47;1013.8;;;26.4;30.2
57799;BME280;43626;53.866;30.298;2023-07-28T15:30:17;1013.8;;;26.5;29.7
57799;BME280;43626;53.866;30.298;2023-07-28T15:35:36;1013.8;;;26.5;29
57799;BME280;43626;53.866;30.298;2023-07-28T15:40:57;1013.8;;;26.5;29.3
57799;BME280;43626;53.866;30.298;2023-07-28T15:45:21;1013.8;;;26.6;29.6
57799;BME280;43626;53.866;30.298;2023-07-28T15:50:57;1013.9;;;26.8;29.5
57799;BME280;43626;53.866;30.298;2023-07-28T15:55:45;1013.9;;;27.1;29.3
57799;BME280;43626;53.866;30.298;2023-07-28T16:00:45;1013.9;;;27.4;29.2
57799;BME280;43626;53.866;30.298;2023-07-28T16:05:58;1013.9;;;27.6;28.7
57799;BME280;43626;53.866;30.298;2023-07-28T16:10:31;1013.9;;;27.8;27.6
57799;BME280;43626;53.866;30.298;2023-07-28T16:15:35;1013.9;;;28;27
57799;BME280;43626;53.866;30.298;2023-07-28T16:20:27;1013.8;;;28.2;26.6
57799;BME280;43626;53.866;30.298;2023-07-28T16:25:57;1013.8;;;28.3;26.6
57799;BME280;43626;53.866;30.298;2023-07-28T16:30:55;1013.8;;;28.6;27.1
57799;BME280;43626;53.866;30.298;2023-07-28T16:35:55;1013.8;;;29;27.2
57799;BME280;43626;53.866;30.298;2023-07-28T16:40:59;1013.8;;;29.2;27.1
57799;BME280;43626;53.866;30.298;2023-07-28T16:45:45;1013.8;;;29.5;27.2
57799;BME280;43626;53.866;30.298;2023-07-28T16:50:39;1013.8;;;29.7;27.2
57799;BME280;43626;53.866;30.298;2023-07-28T16:55:45;1013.8;;;29.7;27.2
57799;BME280;43626;53.866;30.298;2023-07-28T17:00:59;1013.8;;;29.6;27.3
57799;BME280;43626;53.866;30.298;2023-07-28T17:05:43;1013.8;;;29.3;27.2
57799;BME280;43626;53.866;30.298;2023-07-28T17:10:29;1013.8;;;28.3;28.5
57799;BME280;43626;53.866;30.298;2023-07-28T17:15:59;1013.9;;;27.3;30.4
57799;BME280;43626;53.866;30.298;2023-07-28T17:20:33;1013.9;;;26.6;32.1
57799;BME280;43626;53.866;30.298;2023-07-28T17:25:20;1013.9;;;26;34.5
57799;BME280;43626;53.866;30.298;2023-07-28T17:30:17;1014;;;25.5;35.2
57799;BME280;43626;53.866;30.298;2023-07-28T17:36:00;1014;;;25.2;36.1
57799;BME280;43626;53.866;30.298;2023-07-28T17:40:43;1014;;;26;35.3
57799;BME280;43626;53.866;30.298;2023-07-28T17:45:45;1014;;;26;35.4
57799;BME280;43626;53.866;30.298;2023-07-28T17:50:31;1014;;;24.7;37.9
57799;BME280;43626;53.866;30.298;2023-07-28T17:55:17;1014;;;23.9;39.9
57799;BME280;43626;53.866;30.298;2023-07-28T18:00:21;1014;;;23.2;43.2
57799;BME280;43626;53.866;30.298;2023-07-28T18:05:29;1014.1;;;22.5;45.4
57799;BME280;43626;53.866;30.298;2023-07-28T18:10:21;1014.1;;;21.9;46.2
57799;BME280;43626;53.866;30.298;2023-07-28T18:15:43;1014.2;;;21.5;47.6
57799;BME280;43626;53.866;30.298;2023-07-28T18:20:59;1014.2;;;21.1;48.8
57799;BME280;43626;53.866;30.298;2023-07-28T18:25:35;1014.2;;;20.8;49.2
57799;BME280;43626;53.866;30.298;2023-07-28T18:30:17;1014.3;;;20.5;49.6
57799;BME280;43626;53.866;30.298;2023-07-28T18:35:43;1014.3;;;20.2;50.3
57799;BME280;43626;53.866;30.298;2023-07-28T18:40:33;1014.3;;;19.9;50.8
57799;BME280;43626;53.866;30.298;2023-07-28T18:45:33;1014.3;;;19.7;51.3
57799;BME280;43626;53.866;30.298;2023-07-28T18:50:49;1014.3;;;19.5;51.8
57799;BME280;43626;53.866;30.298;2023-07-28T18:55:59;1014.3;;;19.3;53.4
57799;BME280;43626;53.866;30.298;2023-07-28T19:00:17;1014.3;;;19.1;55
57799;BME280;43626;53.866;30.298;2023-07-28T19:05:21;1014.4;;;19;55.3
57799;BME280;43626;53.866;30.298;2023-07-28T19:10:59;1014.4;;;18.8;55.8
57799;BME280;43626;53.866;30.298;2023-07-28T19:15:17;1014.3;;;18.7;56.6
57799;BME280;43626;53.866;30.298;2023-07-28T19:20:17;1014.3;;;18.5;56.5
57799;BME280;43626;53.866;30.298;2023-07-28T19:25:35;1014.3;;;18.4;56.3
57799;BME280;43626;53.866;30.298;2023-07-28T19:30:31;1014.3;;;18.4;56.5
57799;BME280;43626;53.866;30.298;2023-07-28T19:35:21;1014.3;;;18.3;56.7
57799;BME280;43626;53.866;30.298;2023-07-28T19:40:30;1014.4;;;18.2;56.9
57799;BME280;43626;53.866;30.298;2023-07-28T19:45:45;1014.4;;;18.1;57.2
57799;BME280;43626;53.866;30.298;2023-07-28T19:50:47;1014.4;;;18;57.6
57799;BME280;43626;53.866;30.298;2023-07-28T19:55:59;1014.4;;;17.9;58.3
57799;BME280;43626;53.866;30.298;2023-07-28T20:00:35;1014.5;;;17.8;58.6
57799;BME280;43626;53.866;30.298;2023-07-28T20:05:21;1014.5;;;17.7;59.1
57799;BME280;43626;53.866;30.298;2023-07-28T20:10:21;1014.5;;;17.6;59.3
57799;BME280;43626;53.866;30.298;2023-07-28T20:15:59;1014.5;;;17.5;59.4
57799;BME280;43626;53.866;30.298;2023-07-28T20:20:45;1014.5;;;17.5;59.6
57799;BME280;43626;53.866;30.298;2023-07-28T20:25:49;1014.5;;;17.4;59.3
57799;BME280;43626;53.866;30.298;2023-07-28T20:30:57;1014.6;;;17.4;59.5
57799;BME280;43626;53.866;30.298;2023-07-28T20:35:43;1014.6;;;17.3;59.7
57799;BME280;43626;53.866;30.298;2023-07-28T20:40:49;1014.5;;;17.3;59.9
57799;BME280;43626;53.866;30.298;2023-07-28T20:45:17;1014.5;;;17.3;60
57799;BME280;43626;53.866;30.298;2023-07-28T20:50:59;1014.6;;;17.3;60.2
57799;BME280;43626;53.866;30.298;2023-07-28T20:55:59;1014.5;;;17.2;60.7
57799;BME280;43626;53.866;30.298;2023-07-28T21:00:59;1014.5;;;17.1;61.1
57799;BME280;43626;53.866;30.298;2023-07-28T21:05:59;1014.5;;;17.1;61.2
57799;BME280;43626;53.866;30.298;2023-07-28T21:10:43;1014.4;;;17.1;61.2
57799;BME280;43626;53.866;30.298;2023-07-28T21:15:33;1014.5;;;17;61.4
57799;BME280;43626;53.866;30.298;2023-07-28T21:20:45;1014.5;;;17;61.3
57799;BME280;43626;53.866;30.298;2023-07-28T21:25:57;1014.4;;;16.9;61.2
57799;BME280;43626;53.866;30.298;2023-07-28T21:30:41;1014.4;;;16.9;61.2
57799;BME280;43626;53.866;30.298;2023-07-28T21:35:32;1014.4;;;16.9;61.3
57799;BME280;43626;53.866;30.298;2023-07-28T21:40:59;1014.5;;;16.9;61.6
57799;BME280;43626;53.866;30.298;2023-07-28T21:45:17;1014.5;;;16.9;61.7
57799;BME280;43626;53.866;30.298;2023-07-28T21:50:25;1014.4;;;16.9;62
57799;BME280;43626;53.866;30.298;2023-07-28T21:55:57;1014.4;;;16.8;62.2
57799;BME280;43626;53.866;30.298;2023-07-28T22:00:41;1014.4;;;16.8;62.1
57799;BME280;43626;53.866;30.298;2023-07-28T22:05:19;1014.5;;;16.8;61.9
57799;BME280;43626;53.866;30.298;2023-07-28T22:10:43;1014.5;;;16.7;62.2
57799;BME280;43626;53.866;30.298;2023-07-28T22:15:34;1014.5;;;16.7;62.5
57799;BME280;43626;53.866;30.298;2023-07-28T22:20:34;1014.5;;;16.7;62.1
57799;BME280;43626;53.866;30.298;2023-07-28T22:25:21;1014.4;;;16.7;62.2
57799;BME280;43626;53.866;30.298;2023-07-28T22:30:18;1014.4;;;16.7;62.4
57799;BME280;43626;53.866;30.298;2023-07-28T22:35:29;1014.4;;;16.7;62.6
57799;BME280;43626;53.866;30.298;2023-07-28T22:40:43;1014.4;;;16.7;62.6
57799;BME280;43626;53.866;30.298;2023-07-28T22:45:59;1014.4;;;16.7;62.8
57799;BME280;43626;53.866;30.298;2023-07-28T22:50:17;1014.4;;;16.7;62.9
57799;BME280;43626;53.866;30.298;2023-07-28T22:55:21;1014.4;;;16.6;62.8
57799;BME280;43626;53.866;30.298;2023-07-28T23:00:43;1014.4;;;16.6;63.1
57799;BME280;43626;53.866;30.298;2023-07-28T23:05:29;1014.4;;;16.6;63.6
57799;BME280;43626;53.866;30.298;2023-07-28T23:10:17;1014.4;;;16.6;63.8
57799;BME280;43626;53.866;30.298;2023-07-28T23:15:17;1014.4;;;16.6;63.7
57799;BME280;43626;53.866;30.298;2023-07-28T23:20:50;1014.4;;;16.6;63.8
57799;BME280;43626;53.866;30.298;2023-07-28T23:25:21;1014.4;;;16.6;63.8
57799;BME280;43626;53.866;30.298;2023-07-28T23:30:17;1014.4;;;16.6;63.8
57799;BME280;43626;53.866;30.298;2023-07-28T23:35:59;1014.4;;;16.5;63.3
57799;BME280;43626;53.866;30.298;2023-07-28T23:40:49;1014.4;;;16.5;63.2
57799;BME280;43626;53.866;30.298;2023-07-28T23:45:33;1014.3;;;16.5;63.8
57799;BME280;43626;53.866;30.298;2023-07-28T23:50:31;1014.2;;;16.6;64
57799;BME280;43626;53.866;30.298;2023-07-28T23:55:59;1014.2;;;16.6;64.1
